»·PEaware :: N611G L67-KSNA

N611G :: L67-KSNA

FLIGHT INFORMATION

Flight Status: Arrived
Operator: Privately registered:
United States
More flights under this callsign
Pilot: Lance W. (1958)
Aircraft: Unknown
(LNC4)
More flights by this aircraft type
Origin: L67 Rialto Mun/Miro
United States
Destination: KSNA John Wayne-Orange Co
United States
More flights between these airports :: More routes between these airports
Route: DCT
File this flight plan on PilotEdge
Remarks: / V /
Altitude:
(Current/Filed)
6,500ft
Speed:
(Current/Filed)
220kts
Departed: 10-Aug-13 07:02 PM
Arrived: 10-Aug-13 07:42 PM
Distance/Time
Traveled:
36nm/0:39
Distance/Time
To Go:
Arrived

Flight Plot

Page will automatically refresh every two minutes.


Map Options




Map Legend


Flown Route
Filed Route
Departure Airport
Arrival Airport
Navaid (VOR, NDB)
Fix

Horizontal Profiles

Position Reports

Time Latitude Longitude Heading Altitude Ground
Speed
10-Aug-13 19:03 34.129395 -117.403481 276 1458ft 0kts
10-Aug-13 19:04 34.125965 -117.416470 255 1569ft 117kts
10-Aug-13 19:05 34.134921 -117.460430 280 2508ft 170kts
10-Aug-13 19:06 34.140918 -117.525978 273 2652ft 207kts
10-Aug-13 19:07 34.143081 -117.592085 271 3835ft 192kts
10-Aug-13 19:08 34.142258 -117.645740 270 4835ft 190kts
10-Aug-13 19:09 34.141405 -117.720731 271 5629ft 205kts
10-Aug-13 19:10 34.140950 -117.786677 272 4518ft 190kts
10-Aug-13 19:11 34.144169 -117.849165 275 3411ft 184kts
10-Aug-13 19:12 34.147507 -117.909804 273 2546ft 169kts
10-Aug-13 19:13 34.149520 -117.951946 272 2513ft 143kts
10-Aug-13 19:14 34.156608 -118.014123 285 2506ft 180kts
10-Aug-13 19:15 34.169486 -118.074990 286 2616ft 187kts
10-Aug-13 19:16 34.185075 -118.133387 288 3239ft 179kts
10-Aug-13 19:17 34.193914 -118.193795 271 3503ft 192kts
10-Aug-13 19:18 34.196326 -118.259255 273 3499ft 196kts
10-Aug-13 19:19 34.199520 -118.313029 273 3497ft 189kts
10-Aug-13 19:20 34.206047 -118.372462 281 3491ft 186kts
10-Aug-13 19:21 34.218270 -118.443535 280 3509ft 185kts
10-Aug-13 19:22 34.205779 -118.483022 182 3503ft 178kts
10-Aug-13 19:23 34.157357 -118.478877 176 3494ft 167kts
10-Aug-13 19:24 34.113769 -118.472074 172 3495ft 152kts
10-Aug-13 19:25 34.088065 -118.486905 313 3897ft 125kts
10-Aug-13 19:26 34.117624 -118.508986 12 4460ft 141kts
10-Aug-13 19:27 34.105019 -118.474774 159 4697ft 165kts
10-Aug-13 19:28 34.059772 -118.467240 196 5337ft 168kts
10-Aug-13 19:29 34.011923 -118.465428 170 5505ft 190kts
10-Aug-13 19:30 33.960072 -118.445107 158 5500ft 199kts
10-Aug-13 19:31 33.912228 -118.413170 135 5504ft 198kts
10-Aug-13 19:32 33.873007 -118.365414 133 5499ft 201kts
10-Aug-13 19:33 33.832664 -118.319663 135 5414ft 200kts
10-Aug-13 19:34 33.796286 -118.268414 120 4433ft 205kts
10-Aug-13 19:35 33.772538 -118.205959 100 3522ft 204kts
10-Aug-13 19:36 33.762740 -118.142351 98 3395ft 183kts
10-Aug-13 19:37 33.757435 -118.083827 92 3398ft 172kts
10-Aug-13 19:38 33.746449 -118.030242 114 2958ft 165kts
10-Aug-13 19:39 33.731827 -117.976824 107 1764ft 170kts
10-Aug-13 19:40 33.720060 -117.922727 98 923ft 163kts
10-Aug-13 19:41 33.715240 -117.873203 97 1133ft 112kts
10-Aug-13 19:42 33.699212 -117.854132 203 537ft 108kts
10-Aug-13 19:43 33.675632 -117.868865 210 59ft 53kts
10-Aug-13 19:44 33.671878 -117.872531 260 59ft 4kts
10-Aug-13 19:45 33.671319 -117.874199 193 59ft 0kts
10-Aug-13 19:46 33.671319 -117.874199 193 59ft 0kts
10-Aug-13 19:47 33.671319 -117.874199 193 59ft 0kts
10-Aug-13 19:48 33.671319 -117.874199 193 59ft 0kts
10-Aug-13 19:49 33.671319 -117.874199 193 59ft 0kts
10-Aug-13 19:50 33.671319 -117.874199 193 59ft 0kts
10-Aug-13 19:51 33.671319 -117.874199 193 59ft 0kts
10-Aug-13 19:52 33.671319 -117.874199 193 59ft 0kts
10-Aug-13 19:53 33.671319 -117.874199 193 59ft 0kts
10-Aug-13 19:54 33.671319 -117.874199 193 59ft 0kts
10-Aug-13 19:55 33.671319 -117.874199 193 59ft 0kts
10-Aug-13 19:56 33.671319 -117.874199 193 59ft 0kts
10-Aug-13 19:57 33.671319 -117.874199 193 59ft 0kts
10-Aug-13 19:58 33.671319 -117.874199 193 59ft 0kts

Navigation Log

Ident Type
Flight plan parsing failed, navigation log unavailable